sensor_id;sensor_type;location;lat;lon;timestamp;P1;durP1;ratioP1;P2;durP2;ratioP2
48026;SDS011;50714;49.208;5.364;2023-03-31T00:07:12;3.63;;;1.30;;
48026;SDS011;50714;49.208;5.364;2023-03-31T00:17:15;3.83;;;1.48;;
48026;SDS011;50714;49.208;5.364;2023-03-31T00:27:15;5.22;;;1.50;;
48026;SDS011;50714;49.208;5.364;2023-03-31T00:37:16;3.42;;;1.55;;
48026;SDS011;50714;49.208;5.364;2023-03-31T00:47:16;6.18;;;1.58;;
48026;SDS011;50714;49.208;5.364;2023-03-31T00:57:20;2.95;;;1.27;;
48026;SDS011;50714;49.208;5.364;2023-03-31T01:07:23;4.70;;;1.25;;
48026;SDS011;50714;49.208;5.364;2023-03-31T01:17:29;2.67;;;1.30;;
48026;SDS011;50714;49.208;5.364;2023-03-31T01:28:03;2.90;;;1.20;;
48026;SDS011;50714;49.208;5.364;2023-03-31T01:59:16;8.02;;;5.13;;
48026;SDS011;50714;49.208;5.364;2023-03-31T02:09:23;6.82;;;3.80;;
48026;SDS011;50714;49.208;5.364;2023-03-31T02:19:33;2.90;;;1.10;;
48026;SDS011;50714;49.208;5.364;2023-03-31T02:29:38;1.67;;;0.90;;
48026;SDS011;50714;49.208;5.364;2023-03-31T02:39:40;1.98;;;1.00;;
48026;SDS011;50714;49.208;5.364;2023-03-31T02:50:01;3.13;;;1.35;;
48026;SDS011;50714;49.208;5.364;2023-03-31T03:20:59;5.13;;;1.80;;
48026;SDS011;50714;49.208;5.364;2023-03-31T03:30:59;2.80;;;1.70;;
48026;SDS011;50714;49.208;5.364;2023-03-31T03:40:59;4.78;;;2.22;;
48026;SDS011;50714;49.208;5.364;2023-03-31T03:51:00;5.15;;;2.17;;
48026;SDS011;50714;49.208;5.364;2023-03-31T04:01:00;5.28;;;2.90;;
48026;SDS011;50714;49.208;5.364;2023-03-31T04:11:01;6.35;;;2.90;;
48026;SDS011;50714;49.208;5.364;2023-03-31T04:21:02;6.65;;;3.85;;
48026;SDS011;50714;49.208;5.364;2023-03-31T04:31:05;5.18;;;2.83;;
48026;SDS011;50714;49.208;5.364;2023-03-31T04:41:05;6.25;;;2.90;;
48026;SDS011;50714;49.208;5.364;2023-03-31T04:51:06;4.45;;;2.85;;
48026;SDS011;50714;49.208;5.364;2023-03-31T05:01:08;7.43;;;5.13;;
48026;SDS011;50714;49.208;5.364;2023-03-31T05:11:09;7.00;;;3.80;;
48026;SDS011;50714;49.208;5.364;2023-03-31T05:21:19;7.65;;;4.28;;
48026;SDS011;50714;49.208;5.364;2023-03-31T05:31:20;10.13;;;5.82;;
48026;SDS011;50714;49.208;5.364;2023-03-31T05:41:21;12.02;;;6.50;;
48026;SDS011;50714;49.208;5.364;2023-03-31T05:51:21;6.30;;;2.95;;
48026;SDS011;50714;49.208;5.364;2023-03-31T06:01:22;6.75;;;3.15;;
48026;SDS011;50714;49.208;5.364;2023-03-31T06:11:23;6.30;;;2.65;;
48026;SDS011;50714;49.208;5.364;2023-03-31T06:21:24;6.20;;;2.35;;
48026;SDS011;50714;49.208;5.364;2023-03-31T06:31:24;6.25;;;3.40;;
48026;SDS011;50714;49.208;5.364;2023-03-31T06:41:25;5.55;;;2.67;;
48026;SDS011;50714;49.208;5.364;2023-03-31T06:51:25;6.97;;;2.83;;
48026;SDS011;50714;49.208;5.364;2023-03-31T07:01:25;8.88;;;3.22;;
48026;SDS011;50714;49.208;5.364;2023-03-31T07:11:26;9.70;;;4.85;;
48026;SDS011;50714;49.208;5.364;2023-03-31T07:21:26;13.85;;;6.60;;
48026;SDS011;50714;49.208;5.364;2023-03-31T07:31:27;13.65;;;6.53;;
48026;SDS011;50714;49.208;5.364;2023-03-31T07:41:28;15.75;;;7.80;;
48026;SDS011;50714;49.208;5.364;2023-03-31T07:51:28;17.60;;;7.68;;
48026;SDS011;50714;49.208;5.364;2023-03-31T08:01:28;10.25;;;4.57;;
48026;SDS011;50714;49.208;5.364;2023-03-31T08:11:29;7.70;;;3.08;;
48026;SDS011;50714;49.208;5.364;2023-03-31T08:21:30;7.03;;;2.67;;
48026;SDS011;50714;49.208;5.364;2023-03-31T08:31:31;8.82;;;2.80;;
48026;SDS011;50714;49.208;5.364;2023-03-31T08:51:44;13.90;;;5.88;;
48026;SDS011;50714;49.208;5.364;2023-03-31T09:01:49;10.83;;;5.97;;
48026;SDS011;50714;49.208;5.364;2023-03-31T09:12:06;14.55;;;8.40;;
48026;SDS011;50714;49.208;5.364;2023-03-31T09:22:15;11.90;;;7.13;;
48026;SDS011;50714;49.208;5.364;2023-03-31T09:32:26;7.72;;;3.78;;
48026;SDS011;50714;49.208;5.364;2023-03-31T09:52:30;5.13;;;2.30;;
48026;SDS011;50714;49.208;5.364;2023-03-31T10:12:36;6.40;;;2.17;;
48026;SDS011;50714;49.208;5.364;2023-03-31T10:22:42;7.03;;;1.95;;
48026;SDS011;50714;49.208;5.364;2023-03-31T10:32:43;4.57;;;1.77;;
48026;SDS011;50714;49.208;5.364;2023-03-31T10:42:44;4.93;;;2.03;;
48026;SDS011;50714;49.208;5.364;2023-03-31T10:52:47;5.57;;;1.90;;
48026;SDS011;50714;49.208;5.364;2023-03-31T11:33:53;5.50;;;2.07;;
48026;SDS011;50714;49.208;5.364;2023-03-31T11:44:04;5.37;;;1.73;;
48026;SDS011;50714;49.208;5.364;2023-03-31T11:54:31;5.03;;;1.85;;
48026;SDS011;50714;49.208;5.364;2023-03-31T12:14:53;4.05;;;1.50;;
48026;SDS011;50714;49.208;5.364;2023-03-31T12:25:02;3.33;;;1.27;;
48026;SDS011;50714;49.208;5.364;2023-03-31T12:35:05;5.60;;;1.83;;
48026;SDS011;50714;49.208;5.364;2023-03-31T12:45:35;4.03;;;1.35;;
48026;SDS011;50714;49.208;5.364;2023-03-31T12:55:48;4.80;;;1.60;;
48026;SDS011;50714;49.208;5.364;2023-03-31T13:05:53;5.38;;;1.70;;
48026;SDS011;50714;49.208;5.364;2023-03-31T13:15:54;4.75;;;1.60;;
48026;SDS011;50714;49.208;5.364;2023-03-31T13:25:57;3.42;;;1.33;;
48026;SDS011;50714;49.208;5.364;2023-03-31T13:36:05;4.30;;;1.48;;
48026;SDS011;50714;49.208;5.364;2023-03-31T14:06:59;4.03;;;1.95;;
48026;SDS011;50714;49.208;5.364;2023-03-31T14:37:20;3.95;;;1.33;;
48026;SDS011;50714;49.208;5.364;2023-03-31T14:47:23;3.50;;;1.40;;
48026;SDS011;50714;49.208;5.364;2023-03-31T14:57:27;4.20;;;1.52;;
48026;SDS011;50714;49.208;5.364;2023-03-31T15:07:31;10.13;;;6.80;;
48026;SDS011;50714;49.208;5.364;2023-03-31T15:17:37;7.63;;;3.42;;
48026;SDS011;50714;49.208;5.364;2023-03-31T15:27:42;7.07;;;2.67;;
48026;SDS011;50714;49.208;5.364;2023-03-31T15:37:46;5.88;;;2.90;;
48026;SDS011;50714;49.208;5.364;2023-03-31T15:47:50;3.72;;;1.50;;
48026;SDS011;50714;49.208;5.364;2023-03-31T15:57:52;3.83;;;1.40;;
48026;SDS011;50714;49.208;5.364;2023-03-31T16:07:54;3.47;;;1.50;;
48026;SDS011;50714;49.208;5.364;2023-03-31T16:17:57;5.57;;;2.60;;
48026;SDS011;50714;49.208;5.364;2023-03-31T16:28:01;3.15;;;1.48;;
48026;SDS011;50714;49.208;5.364;2023-03-31T16:38:02;1.90;;;0.90;;
48026;SDS011;50714;49.208;5.364;2023-03-31T16:48:03;3.08;;;1.58;;
48026;SDS011;50714;49.208;5.364;2023-03-31T16:58:04;3.75;;;1.70;;
48026;SDS011;50714;49.208;5.364;2023-03-31T17:08:04;2.97;;;1.48;;
48026;SDS011;50714;49.208;5.364;2023-03-31T17:18:05;5.50;;;2.20;;
48026;SDS011;50714;49.208;5.364;2023-03-31T17:28:06;3.53;;;1.67;;
48026;SDS011;50714;49.208;5.364;2023-03-31T17:38:06;3.72;;;1.75;;
48026;SDS011;50714;49.208;5.364;2023-03-31T17:48:08;7.10;;;3.47;;
48026;SDS011;50714;49.208;5.364;2023-03-31T17:58:09;4.32;;;1.50;;
48026;SDS011;50714;49.208;5.364;2023-03-31T18:08:12;3.45;;;1.50;;
48026;SDS011;50714;49.208;5.364;2023-03-31T18:18:13;4.60;;;1.80;;
48026;SDS011;50714;49.208;5.364;2023-03-31T18:28:14;3.97;;;1.20;;
48026;SDS011;50714;49.208;5.364;2023-03-31T18:38:16;5.88;;;2.63;;
48026;SDS011;50714;49.208;5.364;2023-03-31T18:48:17;3.65;;;1.88;;
48026;SDS011;50714;49.208;5.364;2023-03-31T18:58:18;2.42;;;1.30;;
48026;SDS011;50714;49.208;5.364;2023-03-31T19:08:18;3.38;;;1.20;;
48026;SDS011;50714;49.208;5.364;2023-03-31T19:18:19;4.18;;;1.27;;
48026;SDS011;50714;49.208;5.364;2023-03-31T19:28:20;2.67;;;1.27;;
48026;SDS011;50714;49.208;5.364;2023-03-31T19:38:22;2.25;;;1.23;;
48026;SDS011;50714;49.208;5.364;2023-03-31T19:48:24;1.50;;;0.75;;
48026;SDS011;50714;49.208;5.364;2023-03-31T19:58:27;5.45;;;3.30;;
48026;SDS011;50714;49.208;5.364;2023-03-31T20:08:29;8.73;;;5.25;;
48026;SDS011;50714;49.208;5.364;2023-03-31T20:18:29;15.60;;;7.80;;
48026;SDS011;50714;49.208;5.364;2023-03-31T20:28:31;21.45;;;11.13;;
48026;SDS011;50714;49.208;5.364;2023-03-31T20:38:34;5.55;;;3.03;;
48026;SDS011;50714;49.208;5.364;2023-03-31T20:48:36;3.70;;;1.63;;
48026;SDS011;50714;49.208;5.364;2023-03-31T20:58:38;3.22;;;1.13;;
48026;SDS011;50714;49.208;5.364;2023-03-31T21:08:41;1.48;;;0.90;;
48026;SDS011;50714;49.208;5.364;2023-03-31T21:18:44;3.80;;;1.63;;
48026;SDS011;50714;49.208;5.364;2023-03-31T21:28:45;2.47;;;1.00;;
48026;SDS011;50714;49.208;5.364;2023-03-31T21:38:45;1.65;;;0.80;;
48026;SDS011;50714;49.208;5.364;2023-03-31T21:48:46;2.40;;;1.00;;
48026;SDS011;50714;49.208;5.364;2023-03-31T21:58:47;3.47;;;1.10;;
48026;SDS011;50714;49.208;5.364;2023-03-31T22:08:49;2.20;;;0.90;;
48026;SDS011;50714;49.208;5.364;2023-03-31T22:18:50;1.92;;;0.90;;
48026;SDS011;50714;49.208;5.364;2023-03-31T22:28:51;1.85;;;0.65;;
48026;SDS011;50714;49.208;5.364;2023-03-31T22:38:52;3.20;;;1.30;;
48026;SDS011;50714;49.208;5.364;2023-03-31T22:48:52;3.83;;;1.50;;
48026;SDS011;50714;49.208;5.364;2023-03-31T22:58:54;2.88;;;1.40;;
48026;SDS011;50714;49.208;5.364;2023-03-31T23:08:56;3.50;;;1.40;;
48026;SDS011;50714;49.208;5.364;2023-03-31T23:18:57;3.35;;;1.30;;
48026;SDS011;50714;49.208;5.364;2023-03-31T23:28:57;4.55;;;1.55;;
48026;SDS011;50714;49.208;5.364;2023-03-31T23:38:58;4.00;;;1.40;;
48026;SDS011;50714;49.208;5.364;2023-03-31T23:48:58;2.38;;;1.17;;
48026;SDS011;50714;49.208;5.364;2023-03-31T23:59:01;3.00;;;1.30;;
